sensor_id;sensor_type;location;lat;lon;timestamp;temperature;humidity
75838;SHT30;64480;52.040;113.502;2023-03-08T00:01:52;-3.34;55.18
75838;SHT30;64480;52.040;113.502;2023-03-08T00:04:56;-3.32;55.52
75838;SHT30;64480;52.040;113.502;2023-03-08T00:08:00;-3.38;55.63
75838;SHT30;64480;52.040;113.502;2023-03-08T00:11:05;-3.34;54.85
75838;SHT30;64480;52.040;113.502;2023-03-08T00:14:09;-3.42;54.99
75838;SHT30;64480;52.040;113.502;2023-03-08T00:17:12;-3.74;55.86
75838;SHT30;64480;52.040;113.502;2023-03-08T00:20:16;-3.95;55.96
75838;SHT30;64480;52.040;113.502;2023-03-08T00:23:19;-4.12;57.42
75838;SHT30;64480;52.040;113.502;2023-03-08T00:26:23;-4.22;57.38
75838;SHT30;64480;52.040;113.502;2023-03-08T00:29:26;-4.26;57.92
75838;SHT30;64480;52.040;113.502;2023-03-08T00:32:31;-4.22;58.01
75838;SHT30;64480;52.040;113.502;2023-03-08T00:35:35;-4.04;56.83
75838;SHT30;64480;52.040;113.502;2023-03-08T00:38:41;-3.74;55.70
75838;SHT30;64480;52.040;113.502;2023-03-08T00:41:47;-3.64;54.56
75838;SHT30;64480;52.040;113.502;2023-03-08T00:45:00;-3.48;54.85
75838;SHT30;64480;52.040;113.502;2023-03-08T00:48:04;-3.22;54.44
75838;SHT30;64480;52.040;113.502;2023-03-08T00:51:12;-2.94;53.81
75838;SHT30;64480;52.040;113.502;2023-03-08T00:54:16;-2.70;53.07
75838;SHT30;64480;52.040;113.502;2023-03-08T00:57:20;-2.51;52.96
75838;SHT30;64480;52.040;113.502;2023-03-08T01:00:24;-2.30;52.47
75838;SHT30;64480;52.040;113.502;2023-03-08T01:03:29;-2.13;52.05
75838;SHT30;64480;52.040;113.502;2023-03-08T01:06:32;-2.01;52.10
75838;SHT30;64480;52.040;113.502;2023-03-08T01:09:36;-1.82;51.32
75838;SHT30;64480;52.040;113.502;2023-03-08T01:12:40;-1.63;50.14
75838;SHT30;64480;52.040;113.502;2023-03-08T01:15:44;-1.44;50.38
75838;SHT30;64480;52.040;113.502;2023-03-08T01:18:48;-1.22;50.04
75838;SHT30;64480;52.040;113.502;2023-03-08T01:21:53;-1.14;49.21
75838;SHT30;64480;52.040;113.502;2023-03-08T01:24:57;-1.15;48.72
75838;SHT30;64480;52.040;113.502;2023-03-08T01:28:02;-1.14;48.40
75838;SHT30;64480;52.040;113.502;2023-03-08T01:31:14;-1.47;48.52
75838;SHT30;64480;52.040;113.502;2023-03-08T01:34:19;-1.85;49.49
75838;SHT30;64480;52.040;113.502;2023-03-08T01:37:23;-2.13;50.46
75838;SHT30;64480;52.040;113.502;2023-03-08T01:40:27;-2.08;50.46
75838;SHT30;64480;52.040;113.502;2023-03-08T01:43:36;-2.18;50.08
75838;SHT30;64480;52.040;113.502;2023-03-08T01:46:41;-2.07;50.62
75838;SHT30;64480;52.040;113.502;2023-03-08T01:49:58;-2.18;50.40
75838;SHT30;64480;52.040;113.502;2023-03-08T01:53:03;-2.14;51.34
75838;SHT30;64480;52.040;113.502;2023-03-08T01:56:10;-2.05;51.05
75838;SHT30;64480;52.040;113.502;2023-03-08T01:59:14;-1.66;50.95
75838;SHT30;64480;52.040;113.502;2023-03-08T02:02:22;-1.62;50.03
75838;SHT30;64480;52.040;113.502;2023-03-08T02:05:30;-1.18;50.20
75838;SHT30;64480;52.040;113.502;2023-03-08T02:08:43;-0.85;48.65
75838;SHT30;64480;52.040;113.502;2023-03-08T02:11:47;-0.77;48.35
75838;SHT30;64480;52.040;113.502;2023-03-08T02:14:52;-0.87;48.49
75838;SHT30;64480;52.040;113.502;2023-03-08T02:17:57;-0.65;48.31
75838;SHT30;64480;52.040;113.502;2023-03-08T02:21:00;-0.51;47.61
75838;SHT30;64480;52.040;113.502;2023-03-08T02:24:06;-0.31;47.06
75838;SHT30;64480;52.040;113.502;2023-03-08T02:27:22;-0.15;46.62
75838;SHT30;64480;52.040;113.502;2023-03-08T02:30:31;0.38;45.17
75838;SHT30;64480;52.040;113.502;2023-03-08T02:33:44;0.81;43.93
75838;SHT30;64480;52.040;113.502;2023-03-08T02:37:45;0.84;43.00
75838;SHT30;64480;52.040;113.502;2023-03-08T02:46:35;0.81;43.11
75838;SHT30;64480;52.040;113.502;2023-03-08T02:50:43;0.94;42.73
75838;SHT30;64480;52.040;113.502;2023-03-08T02:54:39;0.31;43.56
75838;SHT30;64480;52.040;113.502;2023-03-08T03:01:42;-0.14;46.92
75838;SHT30;64480;52.040;113.502;2023-03-08T03:04:56;-0.20;47.20
75838;SHT30;64480;52.040;113.502;2023-03-08T03:08:06;0.04;47.47
75838;SHT30;64480;52.040;113.502;2023-03-08T03:11:16;0.55;46.40
75838;SHT30;64480;52.040;113.502;2023-03-08T03:14:40;0.86;44.79
75838;SHT30;64480;52.040;113.502;2023-03-08T03:17:53;0.79;45.27
75838;SHT30;64480;52.040;113.502;2023-03-08T03:21:11;0.89;44.85
75838;SHT30;64480;52.040;113.502;2023-03-08T03:24:29;1.09;44.25
75838;SHT30;64480;52.040;113.502;2023-03-08T03:27:42;1.14;43.80
75838;SHT30;64480;52.040;113.502;2023-03-08T03:30:57;0.83;44.45
75838;SHT30;64480;52.040;113.502;2023-03-08T03:34:01;0.73;45.05
75838;SHT30;64480;52.040;113.502;2023-03-08T03:37:12;0.72;45.26
75838;SHT30;64480;52.040;113.502;2023-03-08T03:40:30;0.73;44.56
75838;SHT30;64480;52.040;113.502;2023-03-08T03:43:50;0.69;44.97
75838;SHT30;64480;52.040;113.502;2023-03-08T03:46:55;0.53;45.64
75838;SHT30;64480;52.040;113.502;2023-03-08T03:50:04;0.32;45.49
75838;SHT30;64480;52.040;113.502;2023-03-08T03:53:27;0.11;46.20
75838;SHT30;64480;52.040;113.502;2023-03-08T03:57:21;0.18;46.38
75838;SHT30;64480;52.040;113.502;2023-03-08T04:00:25;0.35;46.44
75838;SHT30;64480;52.040;113.502;2023-03-08T04:03:40;0.52;45.10
75838;SHT30;64480;52.040;113.502;2023-03-08T04:06:44;0.96;44.08
75838;SHT30;64480;52.040;113.502;2023-03-08T04:09:50;1.24;43.74
75838;SHT30;64480;52.040;113.502;2023-03-08T04:12:54;1.49;42.63
75838;SHT30;64480;52.040;113.502;2023-03-08T04:15:57;1.59;41.81
75838;SHT30;64480;52.040;113.502;2023-03-08T04:19:04;1.72;41.34
75838;SHT30;64480;52.040;113.502;2023-03-08T04:22:08;1.72;40.86
75838;SHT30;64480;52.040;113.502;2023-03-08T04:25:18;1.87;40.03
75838;SHT30;64480;52.040;113.502;2023-03-08T04:28:29;1.90;40.13
75838;SHT30;64480;52.040;113.502;2023-03-08T04:31:33;2.15;39.89
75838;SHT30;64480;52.040;113.502;2023-03-08T04:34:42;2.29;39.25
75838;SHT30;64480;52.040;113.502;2023-03-08T04:37:49;2.36;39.09
75838;SHT30;64480;52.040;113.502;2023-03-08T04:40:56;2.41;39.74
75838;SHT30;64480;52.040;113.502;2023-03-08T04:44:21;2.62;39.80
75838;SHT30;64480;52.040;113.502;2023-03-08T04:47:26;2.90;39.97
75838;SHT30;64480;52.040;113.502;2023-03-08T04:50:30;3.24;39.32
75838;SHT30;64480;52.040;113.502;2023-03-08T04:53:34;3.40;39.47
75838;SHT30;64480;52.040;113.502;2023-03-08T04:56:38;3.90;38.79
75838;SHT30;64480;52.040;113.502;2023-03-08T04:59:47;4.29;37.83
75838;SHT30;64480;52.040;113.502;2023-03-08T05:02:51;4.38;37.36
75838;SHT30;64480;52.040;113.502;2023-03-08T05:05:57;4.52;37.89
75838;SHT30;64480;52.040;113.502;2023-03-08T05:09:01;4.73;37.03
75838;SHT30;64480;52.040;113.502;2023-03-08T05:12:05;4.79;36.18
75838;SHT30;64480;52.040;113.502;2023-03-08T05:15:25;4.81;36.12
75838;SHT30;64480;52.040;113.502;2023-03-08T05:18:29;4.85;35.69
75838;SHT30;64480;52.040;113.502;2023-03-08T05:21:33;4.90;33.95
75838;SHT30;64480;52.040;113.502;2023-03-08T05:24:40;4.72;33.74
75838;SHT30;64480;52.040;113.502;2023-03-08T05:27:46;4.38;34.37
75838;SHT30;64480;52.040;113.502;2023-03-08T05:31:01;4.39;35.49
75838;SHT30;64480;52.040;113.502;2023-03-08T05:34:09;4.69;35.36
75838;SHT30;64480;52.040;113.502;2023-03-08T05:37:16;5.09;34.55
75838;SHT30;64480;52.040;113.502;2023-03-08T05:40:20;4.81;33.63
75838;SHT30;64480;52.040;113.502;2023-03-08T05:43:24;4.62;32.61
75838;SHT30;64480;52.040;113.502;2023-03-08T05:46:28;4.63;33.06
75838;SHT30;64480;52.040;113.502;2023-03-08T05:49:35;4.60;33.08
75838;SHT30;64480;52.040;113.502;2023-03-08T05:52:46;4.57;32.47
75838;SHT30;64480;52.040;113.502;2023-03-08T05:55:56;4.56;32.68
75838;SHT30;64480;52.040;113.502;2023-03-08T05:59:30;4.52;31.97
75838;SHT30;64480;52.040;113.502;2023-03-08T06:02:37;4.02;31.23
75838;SHT30;64480;52.040;113.502;2023-03-08T06:05:54;3.83;32.01
75838;SHT30;64480;52.040;113.502;2023-03-08T06:09:00;3.67;31.75
75838;SHT30;64480;52.040;113.502;2023-03-08T06:12:09;3.70;32.02
75838;SHT30;64480;52.040;113.502;2023-03-08T06:15:26;3.73;32.26
75838;SHT30;64480;52.040;113.502;2023-03-08T06:18:32;3.58;32.70
75838;SHT30;64480;52.040;113.502;2023-03-08T06:21:43;3.40;32.94
75838;SHT30;64480;52.040;113.502;2023-03-08T06:24:47;3.42;32.79
75838;SHT30;64480;52.040;113.502;2023-03-08T06:27:59;3.64;33.39
75838;SHT30;64480;52.040;113.502;2023-03-08T06:31:15;3.77;33.88
75838;SHT30;64480;52.040;113.502;2023-03-08T06:34:21;3.84;34.03
75838;SHT30;64480;52.040;113.502;2023-03-08T06:37:31;3.81;34.36
75838;SHT30;64480;52.040;113.502;2023-03-08T06:40:37;3.91;34.30
75838;SHT30;64480;52.040;113.502;2023-03-08T06:43:42;4.08;33.59
75838;SHT30;64480;52.040;113.502;2023-03-08T06:46:46;3.93;32.22
75838;SHT30;64480;52.040;113.502;2023-03-08T06:49:52;3.93;32.74
75838;SHT30;64480;52.040;113.502;2023-03-08T06:52:56;3.97;31.63
75838;SHT30;64480;52.040;113.502;2023-03-08T06:56:23;4.04;31.33
75838;SHT30;64480;52.040;113.502;2023-03-08T06:59:30;4.05;31.36
75838;SHT30;64480;52.040;113.502;2023-03-08T07:02:34;4.04;30.30
75838;SHT30;64480;52.040;113.502;2023-03-08T07:05:38;4.09;29.89
75838;SHT30;64480;52.040;113.502;2023-03-08T07:08:45;4.15;30.29
75838;SHT30;64480;52.040;113.502;2023-03-08T07:11:49;4.27;29.80
75838;SHT30;64480;52.040;113.502;2023-03-08T07:18:46;4.02;26.71
75838;SHT30;64480;52.040;113.502;2023-03-08T07:22:16;3.77;26.03
75838;SHT30;64480;52.040;113.502;2023-03-08T07:25:20;3.67;25.61
75838;SHT30;64480;52.040;113.502;2023-03-08T07:28:25;3.63;25.52
75838;SHT30;64480;52.040;113.502;2023-03-08T07:31:30;3.58;26.03
75838;SHT30;64480;52.040;113.502;2023-03-08T07:34:36;3.56;26.72
75838;SHT30;64480;52.040;113.502;2023-03-08T07:37:43;3.46;26.98
75838;SHT30;64480;52.040;113.502;2023-03-08T07:40:53;3.42;27.35
75838;SHT30;64480;52.040;113.502;2023-03-08T07:43:57;3.49;25.74
75838;SHT30;64480;52.040;113.502;2023-03-08T07:47:18;3.27;25.92
75838;SHT30;64480;52.040;113.502;2023-03-08T07:50:22;3.24;27.38
75838;SHT30;64480;52.040;113.502;2023-03-08T07:53:25;3.25;28.23
75838;SHT30;64480;52.040;113.502;2023-03-08T07:56:29;3.28;27.57
75838;SHT30;64480;52.040;113.502;2023-03-08T07:59:42;3.24;28.18
75838;SHT30;64480;52.040;113.502;2023-03-08T08:02:54;3.25;26.23
75838;SHT30;64480;52.040;113.502;2023-03-08T08:06:07;3.31;26.84
75838;SHT30;64480;52.040;113.502;2023-03-08T08:09:16;3.19;25.35
75838;SHT30;64480;52.040;113.502;2023-03-08T08:12:20;3.12;25.96
75838;SHT30;64480;52.040;113.502;2023-03-08T08:15:25;3.17;26.71
75838;SHT30;64480;52.040;113.502;2023-03-08T08:18:29;3.14;27.09
75838;SHT30;64480;52.040;113.502;2023-03-08T08:21:33;3.03;25.80
75838;SHT30;64480;52.040;113.502;2023-03-08T08:24:36;2.97;26.07
75838;SHT30;64480;52.040;113.502;2023-03-08T08:27:40;2.97;27.42
75838;SHT30;64480;52.040;113.502;2023-03-08T08:30:44;3.03;27.29
75838;SHT30;64480;52.040;113.502;2023-03-08T08:33:48;3.00;26.43
75838;SHT30;64480;52.040;113.502;2023-03-08T08:36:51;2.91;26.67
75838;SHT30;64480;52.040;113.502;2023-03-08T08:39:55;2.77;26.96
75838;SHT30;64480;52.040;113.502;2023-03-08T08:42:59;2.79;27.28
75838;SHT30;64480;52.040;113.502;2023-03-08T08:46:03;2.84;27.69
75838;SHT30;64480;52.040;113.502;2023-03-08T08:49:10;2.84;25.93
75838;SHT30;64480;52.040;113.502;2023-03-08T08:52:14;2.72;25.34
75838;SHT30;64480;52.040;113.502;2023-03-08T08:55:17;2.46;25.12
75838;SHT30;64480;52.040;113.502;2023-03-08T08:58:21;2.39;25.22
75838;SHT30;64480;52.040;113.502;2023-03-08T09:01:28;2.38;25.29
75838;SHT30;64480;52.040;113.502;2023-03-08T09:04:32;2.24;25.51
75838;SHT30;64480;52.040;113.502;2023-03-08T09:07:36;2.22;26.07
75838;SHT30;64480;52.040;113.502;2023-03-08T09:10:40;2.25;26.93
75838;SHT30;64480;52.040;113.502;2023-03-08T09:13:44;2.24;27.09
75838;SHT30;64480;52.040;113.502;2023-03-08T09:16:48;2.18;26.89
75838;SHT30;64480;52.040;113.502;2023-03-08T09:19:57;2.18;27.20
75838;SHT30;64480;52.040;113.502;2023-03-08T09:23:01;2.17;26.87
75838;SHT30;64480;52.040;113.502;2023-03-08T09:26:05;2.15;26.73
75838;SHT30;64480;52.040;113.502;2023-03-08T09:29:09;2.10;26.70
75838;SHT30;64480;52.040;113.502;2023-03-08T09:32:13;2.04;26.82
75838;SHT30;64480;52.040;113.502;2023-03-08T09:35:16;1.96;26.69
75838;SHT30;64480;52.040;113.502;2023-03-08T09:38:20;1.87;26.34
75838;SHT30;64480;52.040;113.502;2023-03-08T09:45:07;1.64;26.79
75838;SHT30;64480;52.040;113.502;2023-03-08T09:48:21;1.49;27.20
75838;SHT30;64480;52.040;113.502;2023-03-08T09:51:32;1.45;27.34
75838;SHT30;64480;52.040;113.502;2023-03-08T09:54:38;1.35;27.72
75838;SHT30;64480;52.040;113.502;2023-03-08T09:57:50;1.23;27.64
75838;SHT30;64480;52.040;113.502;2023-03-08T10:01:14;1.15;27.55
75838;SHT30;64480;52.040;113.502;2023-03-08T10:04:25;1.09;28.07
75838;SHT30;64480;52.040;113.502;2023-03-08T10:11:09;0.91;28.61
75838;SHT30;64480;52.040;113.502;2023-03-08T10:14:23;0.81;28.45
75838;SHT30;64480;52.040;113.502;2023-03-08T10:17:48;0.73;28.60
75838;SHT30;64480;52.040;113.502;2023-03-08T10:20:57;0.65;29.17
75838;SHT30;64480;52.040;113.502;2023-03-08T10:27:37;0.46;29.47
75838;SHT30;64480;52.040;113.502;2023-03-08T10:30:55;0.41;29.21
75838;SHT30;64480;52.040;113.502;2023-03-08T10:34:14;0.37;29.53
75838;SHT30;64480;52.040;113.502;2023-03-08T10:37:20;0.29;29.53
75838;SHT30;64480;52.040;113.502;2023-03-08T10:40:27;0.24;29.77
75838;SHT30;64480;52.040;113.502;2023-03-08T10:43:34;0.18;29.58
75838;SHT30;64480;52.040;113.502;2023-03-08T10:46:48;0.10;29.90
75838;SHT30;64480;52.040;113.502;2023-03-08T10:50:11;0.03;30.25
75838;SHT30;64480;52.040;113.502;2023-03-08T10:53:17;-0.04;30.41
75838;SHT30;64480;52.040;113.502;2023-03-08T10:56:42;-0.09;31.06
75838;SHT30;64480;52.040;113.502;2023-03-08T10:59:49;-0.14;30.83
75838;SHT30;64480;52.040;113.502;2023-03-08T11:03:02;-0.20;31.26
75838;SHT30;64480;52.040;113.502;2023-03-08T11:06:14;-0.27;31.17
75838;SHT30;64480;52.040;113.502;2023-03-08T11:09:21;-0.28;31.19
75838;SHT30;64480;52.040;113.502;2023-03-08T11:12:26;-0.28;30.94
75838;SHT30;64480;52.040;113.502;2023-03-08T11:15:31;-0.32;31.12
75838;SHT30;64480;52.040;113.502;2023-03-08T11:22:32;-0.44;31.64
75838;SHT30;64480;52.040;113.502;2023-03-08T11:26:03;-0.48;31.52
75838;SHT30;64480;52.040;113.502;2023-03-08T11:29:28;-0.55;31.80
75838;SHT30;64480;52.040;113.502;2023-03-08T11:33:09;-0.62;31.71
75838;SHT30;64480;52.040;113.502;2023-03-08T11:36:23;-0.65;32.09
75838;SHT30;64480;52.040;113.502;2023-03-08T11:39:42;-0.66;32.03
75838;SHT30;64480;52.040;113.502;2023-03-08T11:42:53;-0.73;32.47
75838;SHT30;64480;52.040;113.502;2023-03-08T11:50:15;-0.65;31.76
75838;SHT30;64480;52.040;113.502;2023-03-08T11:53:47;-0.64;32.10
75838;SHT30;64480;52.040;113.502;2023-03-08T11:56:58;-0.61;31.89
75838;SHT30;64480;52.040;113.502;2023-03-08T12:00:52;-0.61;32.01
75838;SHT30;64480;52.040;113.502;2023-03-08T12:03:36;-0.62;31.90
75838;SHT30;64480;52.040;113.502;2023-03-08T12:06:41;-0.61;31.72
75838;SHT30;64480;52.040;113.502;2023-03-08T12:10:19;-0.65;31.84
75838;SHT30;64480;52.040;113.502;2023-03-08T12:13:33;-0.64;30.99
75838;SHT30;64480;52.040;113.502;2023-03-08T12:17:09;-0.58;30.00
75838;SHT30;64480;52.040;113.502;2023-03-08T12:20:18;-0.54;30.56
75838;SHT30;64480;52.040;113.502;2023-03-08T12:23:40;-0.59;31.48
75838;SHT30;64480;52.040;113.502;2023-03-08T12:27:11;-0.61;32.60
75838;SHT30;64480;52.040;113.502;2023-03-08T12:33:42;-0.77;32.59
75838;SHT30;64480;52.040;113.502;2023-03-08T12:36:45;-0.82;33.05
75838;SHT30;64480;52.040;113.502;2023-03-08T12:43:33;-0.93;33.26
75838;SHT30;64480;52.040;113.502;2023-03-08T12:46:53;-1.01;33.74
75838;SHT30;64480;52.040;113.502;2023-03-08T12:50:13;-1.07;33.51
75838;SHT30;64480;52.040;113.502;2023-03-08T12:56:54;-1.20;34.25
75838;SHT30;64480;52.040;113.502;2023-03-08T13:00:05;-1.24;34.36
75838;SHT30;64480;52.040;113.502;2023-03-08T13:09:46;-1.44;34.66
75838;SHT30;64480;52.040;113.502;2023-03-08T13:13:16;-1.48;35.23
75838;SHT30;64480;52.040;113.502;2023-03-08T13:16:41;-1.48;34.98
75838;SHT30;64480;52.040;113.502;2023-03-08T13:19:49;-1.47;34.65
75838;SHT30;64480;52.040;113.502;2023-03-08T13:29:20;-1.35;34.73
75838;SHT30;64480;52.040;113.502;2023-03-08T13:32:24;-1.30;34.48
75838;SHT30;64480;52.040;113.502;2023-03-08T13:35:31;-1.22;34.70
75838;SHT30;64480;52.040;113.502;2023-03-08T13:38:36;-1.18;34.77
75838;SHT30;64480;52.040;113.502;2023-03-08T13:41:42;-1.17;34.70
75838;SHT30;64480;52.040;113.502;2023-03-08T13:44:47;-1.14;34.79
75838;SHT30;64480;52.040;113.502;2023-03-08T13:47:53;-1.10;34.96
75838;SHT30;64480;52.040;113.502;2023-03-08T13:51:04;-1.10;34.93
75838;SHT30;64480;52.040;113.502;2023-03-08T13:54:36;-1.11;34.93
75838;SHT30;64480;52.040;113.502;2023-03-08T13:57:50;-1.11;35.46
75838;SHT30;64480;52.040;113.502;2023-03-08T14:01:12;-1.11;35.13
75838;SHT30;64480;52.040;113.502;2023-03-08T14:04:30;-1.11;34.64
75838;SHT30;64480;52.040;113.502;2023-03-08T14:11:25;-1.15;35.27
75838;SHT30;64480;52.040;113.502;2023-03-08T14:14:32;-1.21;35.36
75838;SHT30;64480;52.040;113.502;2023-03-08T14:17:39;-1.24;34.78
75838;SHT30;64480;52.040;113.502;2023-03-08T14:20:46;-1.24;35.74
75838;SHT30;64480;52.040;113.502;2023-03-08T14:24:02;-1.28;35.91
75838;SHT30;64480;52.040;113.502;2023-03-08T14:30:19;-1.28;36.13
75838;SHT30;64480;52.040;113.502;2023-03-08T14:33:27;-1.32;36.58
75838;SHT30;64480;52.040;113.502;2023-03-08T14:36:51;-1.41;37.00
75838;SHT30;64480;52.040;113.502;2023-03-08T14:43:30;-1.59;36.83
75838;SHT30;64480;52.040;113.502;2023-03-08T14:46:38;-1.66;37.27
75838;SHT30;64480;52.040;113.502;2023-03-08T14:49:42;-1.69;37.67
75838;SHT30;64480;52.040;113.502;2023-03-08T14:52:52;-1.76;37.93
75838;SHT30;64480;52.040;113.502;2023-03-08T14:56:01;-1.79;38.21
75838;SHT30;64480;52.040;113.502;2023-03-08T14:59:32;-1.77;38.50
75838;SHT30;64480;52.040;113.502;2023-03-08T15:02:40;-1.77;38.81
75838;SHT30;64480;52.040;113.502;2023-03-08T15:05:53;-1.77;38.82
75838;SHT30;64480;52.040;113.502;2023-03-08T15:09:16;-1.80;38.22
75838;SHT30;64480;52.040;113.502;2023-03-08T15:12:34;-1.87;38.73
75838;SHT30;64480;52.040;113.502;2023-03-08T15:15:53;-1.94;38.70
75838;SHT30;64480;52.040;113.502;2023-03-08T15:19:10;-2.07;39.43
75838;SHT30;64480;52.040;113.502;2023-03-08T15:22:39;-2.20;39.44
75838;SHT30;64480;52.040;113.502;2023-03-08T15:25:44;-2.34;38.82
75838;SHT30;64480;52.040;113.502;2023-03-08T15:28:51;-2.48;39.74
75838;SHT30;64480;52.040;113.502;2023-03-08T15:31:58;-2.59;39.12
75838;SHT30;64480;52.040;113.502;2023-03-08T15:35:03;-2.72;39.86
75838;SHT30;64480;52.040;113.502;2023-03-08T15:38:14;-2.77;39.85
75838;SHT30;64480;52.040;113.502;2023-03-08T15:41:18;-2.91;39.94
75838;SHT30;64480;52.040;113.502;2023-03-08T15:44:22;-2.97;40.39
75838;SHT30;64480;52.040;113.502;2023-03-08T15:47:26;-3.04;40.56
75838;SHT30;64480;52.040;113.502;2023-03-08T15:50:31;-3.16;40.98
75838;SHT30;64480;52.040;113.502;2023-03-08T15:53:35;-3.24;41.48
75838;SHT30;64480;52.040;113.502;2023-03-08T15:56:39;-3.35;42.20
75838;SHT30;64480;52.040;113.502;2023-03-08T15:59:42;-3.42;42.60
75838;SHT30;64480;52.040;113.502;2023-03-08T16:02:46;-3.49;43.13
75838;SHT30;64480;52.040;113.502;2023-03-08T16:05:54;-3.53;43.23
75838;SHT30;64480;52.040;113.502;2023-03-08T16:08:57;-3.55;43.22
75838;SHT30;64480;52.040;113.502;2023-03-08T16:12:04;-3.53;43.71
75838;SHT30;64480;52.040;113.502;2023-03-08T16:15:09;-3.49;43.51
75838;SHT30;64480;52.040;113.502;2023-03-08T16:18:13;-3.51;43.96
75838;SHT30;64480;52.040;113.502;2023-03-08T16:21:17;-3.51;43.71
75838;SHT30;64480;52.040;113.502;2023-03-08T16:24:21;-3.58;43.56
75838;SHT30;64480;52.040;113.502;2023-03-08T16:27:24;-3.62;43.88
75838;SHT30;64480;52.040;113.502;2023-03-08T16:30:28;-3.66;44.18
75838;SHT30;64480;52.040;113.502;2023-03-08T16:33:31;-3.67;43.30
75838;SHT30;64480;52.040;113.502;2023-03-08T16:36:35;-3.70;43.26
75838;SHT30;64480;52.040;113.502;2023-03-08T16:39:39;-3.70;43.00
75838;SHT30;64480;52.040;113.502;2023-03-08T16:42:42;-3.70;42.94
75838;SHT30;64480;52.040;113.502;2023-03-08T16:45:58;-3.73;42.77
75838;SHT30;64480;52.040;113.502;2023-03-08T16:49:01;-3.76;42.63
75838;SHT30;64480;52.040;113.502;2023-03-08T16:52:05;-3.73;42.81
75838;SHT30;64480;52.040;113.502;2023-03-08T16:55:09;-3.71;43.10
75838;SHT30;64480;52.040;113.502;2023-03-08T16:58:14;-3.60;43.09
75838;SHT30;64480;52.040;113.502;2023-03-08T17:01:19;-3.48;42.94
75838;SHT30;64480;52.040;113.502;2023-03-08T17:04:23;-3.36;42.03
75838;SHT30;64480;52.040;113.502;2023-03-08T17:07:26;-3.41;41.84
75838;SHT30;64480;52.040;113.502;2023-03-08T17:10:30;-3.35;42.30
75838;SHT30;64480;52.040;113.502;2023-03-08T17:13:33;-3.38;42.24
75838;SHT30;64480;52.040;113.502;2023-03-08T17:16:43;-3.32;42.69
75838;SHT30;64480;52.040;113.502;2023-03-08T17:19:50;-3.22;42.47
75838;SHT30;64480;52.040;113.502;2023-03-08T17:22:54;-3.24;42.51
75838;SHT30;64480;52.040;113.502;2023-03-08T17:25:58;-3.36;42.12
75838;SHT30;64480;52.040;113.502;2023-03-08T17:29:04;-3.39;42.36
75838;SHT30;64480;52.040;113.502;2023-03-08T17:32:08;-3.42;42.28
75838;SHT30;64480;52.040;113.502;2023-03-08T17:35:11;-3.49;42.31
75838;SHT30;64480;52.040;113.502;2023-03-08T17:38:18;-3.59;42.78
75838;SHT30;64480;52.040;113.502;2023-03-08T17:41:43;-3.67;43.04
75838;SHT30;64480;52.040;113.502;2023-03-08T17:44:50;-3.70;43.17
75838;SHT30;64480;52.040;113.502;2023-03-08T17:47:54;-3.70;42.94
75838;SHT30;64480;52.040;113.502;2023-03-08T17:51:08;-3.70;42.98
75838;SHT30;64480;52.040;113.502;2023-03-08T17:54:20;-3.70;43.05
75838;SHT30;64480;52.040;113.502;2023-03-08T17:57:23;-3.67;43.07
75838;SHT30;64480;52.040;113.502;2023-03-08T18:00:32;-3.58;42.97
75838;SHT30;64480;52.040;113.502;2023-03-08T18:03:36;-3.45;43.01
75838;SHT30;64480;52.040;113.502;2023-03-08T18:06:43;-3.36;42.43
75838;SHT30;64480;52.040;113.502;2023-03-08T18:09:47;-3.38;42.46
75838;SHT30;64480;52.040;113.502;2023-03-08T18:12:53;-3.28;42.47
75838;SHT30;64480;52.040;113.502;2023-03-08T18:15:57;-3.27;43.35
75838;SHT30;64480;52.040;113.502;2023-03-08T18:19:01;-3.18;43.33
75838;SHT30;64480;52.040;113.502;2023-03-08T18:22:05;-3.18;43.25
75838;SHT30;64480;52.040;113.502;2023-03-08T18:25:09;-3.09;42.82
75838;SHT30;64480;52.040;113.502;2023-03-08T18:28:15;-3.15;42.95
75838;SHT30;64480;52.040;113.502;2023-03-08T18:31:23;-3.12;42.71
75838;SHT30;64480;52.040;113.502;2023-03-08T18:34:28;-3.15;43.28
75838;SHT30;64480;52.040;113.502;2023-03-08T18:37:34;-3.12;43.23
75838;SHT30;64480;52.040;113.502;2023-03-08T18:40:38;-3.22;43.49
75838;SHT30;64480;52.040;113.502;2023-03-08T18:43:42;-3.22;43.15
75838;SHT30;64480;52.040;113.502;2023-03-08T18:46:46;-3.31;42.58
75838;SHT30;64480;52.040;113.502;2023-03-08T18:49:49;-3.41;42.68
75838;SHT30;64480;52.040;113.502;2023-03-08T18:52:53;-3.34;42.92
75838;SHT30;64480;52.040;113.502;2023-03-08T18:55:59;-3.31;43.52
75838;SHT30;64480;52.040;113.502;2023-03-08T18:59:05;-3.41;43.00
75838;SHT30;64480;52.040;113.502;2023-03-08T19:02:10;-3.52;43.59
75838;SHT30;64480;52.040;113.502;2023-03-08T19:05:14;-3.60;44.00
75838;SHT30;64480;52.040;113.502;2023-03-08T19:08:19;-3.63;44.03
75838;SHT30;64480;52.040;113.502;2023-03-08T19:11:25;-3.67;43.96
75838;SHT30;64480;52.040;113.502;2023-03-08T19:14:29;-3.64;44.32
75838;SHT30;64480;52.040;113.502;2023-03-08T19:17:33;-3.51;44.09
75838;SHT30;64480;52.040;113.502;2023-03-08T19:20:42;-3.45;43.48
75838;SHT30;64480;52.040;113.502;2023-03-08T19:23:47;-3.48;43.04
75838;SHT30;64480;52.040;113.502;2023-03-08T19:26:50;-3.41;43.25
75838;SHT30;64480;52.040;113.502;2023-03-08T19:29:55;-3.30;42.90
75838;SHT30;64480;52.040;113.502;2023-03-08T19:32:59;-3.14;42.48
75838;SHT30;64480;52.040;113.502;2023-03-08T19:36:03;-3.12;41.82
75838;SHT30;64480;52.040;113.502;2023-03-08T19:39:14;-3.15;42.04
75838;SHT30;64480;52.040;113.502;2023-03-08T19:42:18;-3.34;43.25
75838;SHT30;64480;52.040;113.502;2023-03-08T19:45:25;-3.59;44.61
75838;SHT30;64480;52.040;113.502;2023-03-08T19:48:29;-3.74;45.97
75838;SHT30;64480;52.040;113.502;2023-03-08T19:51:36;-3.91;46.90
75838;SHT30;64480;52.040;113.502;2023-03-08T19:54:39;-3.99;47.43
75838;SHT30;64480;52.040;113.502;2023-03-08T19:57:44;-4.01;47.58
75838;SHT30;64480;52.040;113.502;2023-03-08T20:00:47;-3.98;47.22
75838;SHT30;64480;52.040;113.502;2023-03-08T20:04:25;-3.95;47.33
75838;SHT30;64480;52.040;113.502;2023-03-08T20:07:32;-3.98;46.84
75838;SHT30;64480;52.040;113.502;2023-03-08T20:10:44;-4.14;47.07
75838;SHT30;64480;52.040;113.502;2023-03-08T20:13:48;-4.12;47.50
75838;SHT30;64480;52.040;113.502;2023-03-08T20:16:55;-4.19;47.17
75838;SHT30;64480;52.040;113.502;2023-03-08T20:20:25;-4.19;47.54
75838;SHT30;64480;52.040;113.502;2023-03-08T20:23:29;-4.18;47.61
75838;SHT30;64480;52.040;113.502;2023-03-08T20:26:36;-4.14;47.48
75838;SHT30;64480;52.040;113.502;2023-03-08T20:29:40;-3.95;47.17
75838;SHT30;64480;52.040;113.502;2023-03-08T20:32:47;-3.83;46.86